Weather reports worldwide

Advertisment
Toulon/Ile du Levant, France (7678): temperature & dewpoint: 11.07.2018 15:00:00 - 17.07.2018 15:00:00 (CEST)Toulon/Ile du Levant, France (7678): wind speed & gusts: 11.07.2018 15:00:00 - 17.07.2018 15:00:00 (CEST)Toulon/Ile du Levant, France (7678): wind direction: 11.07.2018 15:00:00 - 17.07.2018 15:00:00 (CEST)Toulon/Ile du Levant, France (7678): reduced air pressure: 11.07.2018 15:00:00 - 17.07.2018 15:00:00 (CEST)Toulon/Ile du Levant, France (7678): precipitation: 11.07.2018 15:00:00 - 17.07.2018 15:00:00 (CEST)
Date & Time tt [°C] td [°C] ff [km/h] ff [kn] fx [km/h] fx [kn] dd ppp [hPa] rr [mm]
17.07.2018 15:00:00 27,9 17,4 11 6 18 10 W 1012,7 0,0
17.07.2018 14:00:00 27,6 16,9 9 5 15 8 NW 1012,9 -
17.07.2018 13:00:00 26,4 17,2 9 5 16 9 SSE 1013,1 0,0
17.07.2018 12:00:00 26,9 16,5 2 1 15 8 SSE 1013,0 0,0
17.07.2018 11:00:00 25,4 16,5 9 5 21 11 NW 1012,6 -
17.07.2018 10:00:00 24,3 16,8 15 8 21 11 WNW 1012,3 0,0
17.07.2018 09:00:00 24,1 17,3 8 4 13 7 SSE 1012,1 0,0
17.07.2018 08:00:00 23,4 17,2 5 3 13 7 ESE 1011,9 -
17.07.2018 07:00:00 22,3 15,6 11 6 24 13 WNW 1011,5 0,0
17.07.2018 06:00:00 21,9 17,5 18 10 28 15 WNW 1011,0 0,0
17.07.2018 05:00:00 22,1 16,8 22 12 31 17 WNW 1010,6 -
17.07.2018 04:00:00 21,8 17,2 18 10 29 16 W 1010,5 0,0
17.07.2018 03:00:00 21,3 17,3 21 11 34 18 WNW 1010,6 0,0
17.07.2018 02:00:00 20,4 18,5 21 11 26 14 WNW 1010,5 -
17.07.2018 01:00:00 20,2 19,0 18 10 34 18 WNW 1010,5 0,0
17.07.2018 00:00:00 19,6 17,9 24 13 34 18 W 1010,8 0,0
16.07.2018 23:00:00 18,8 17,1 21 11 34 18 WNW 1010,7 -
16.07.2018 22:00:00 18,9 16,5 21 11 31 17 WNW 1010,8 0,0
16.07.2018 21:00:00 18,6 16,0 21 11 29 16 WNW 1009,8 0,0
16.07.2018 20:00:00 18,5 16,1 18 10 28 15 WNW 1009,9 -
16.07.2018 19:00:00 18,5 16,3 13 7 21 11 NW 1009,4 1,0
16.07.2018 18:00:00 18,2 16,4 11 6 35 19 ENE 1008,9 1,0
16.07.2018 17:00:00 17,8 16,1 22 12 42 23 NE 1008,8 -
16.07.2018 16:00:00 17,4 16,4 18 10 76 41 SE 1008,6 15,0
16.07.2018 15:00:00 24,2 22,3 26 14 46 25 E 1008,8 0,0
16.07.2018 14:00:00 25,1 22,8 35 19 50 27 E 1008,4 -
16.07.2018 13:00:00 25,7 22,4 24 13 41 22 E 1010,0 0,0
16.07.2018 12:00:00 27,6 23,0 24 13 41 22 E 1008,8 0,0
16.07.2018 11:00:00 26,9 22,9 18 10 37 20 ESE 1009,7 -
16.07.2018 10:00:00 24,7 22,6 24 13 34 18 E 1010,0 0,0
16.07.2018 09:00:00 24,0 21,7 21 11 26 14 E 1010,4 0,0
16.07.2018 08:00:00 23,2 21,5 8 4 13 7 ENE 1010,7 -
16.07.2018 07:00:00 23,0 21,4 2 1 16 9 NW 1011,4 0,0
16.07.2018 06:00:00 23,1 21,9 16 9 28 15 SW 1012,2 0,2
16.07.2018 05:00:00 22,8 21,6 15 8 24 13 W 1011,7 -
16.07.2018 04:00:00 23,0 21,4 18 10 28 15 W 1012,4 0,0
16.07.2018 03:00:00 23,1 21,9 21 11 34 18 W 1012,9 0,0
16.07.2018 02:00:00 22,9 21,5 18 10 35 19 W 1013,6 -
16.07.2018 01:00:00 23,2 22,0 24 13 35 19 W 1013,1 0,0
16.07.2018 00:00:00 23,5 21,9 24 13 37 20 W 1013,0 0,0
15.07.2018 23:00:00 23,5 21,6 28 15 44 24 W 1012,7 -
15.07.2018 22:00:00 23,6 21,5 31 17 46 25 W 1012,9 0,0
15.07.2018 21:00:00 24,1 21,4 35 19 50 27 W 1012,7 0,0
15.07.2018 20:00:00 25,2 20,2 34 18 44 24 W 1012,1 -
15.07.2018 19:00:00 26,5 20,1 26 14 44 24 W 1012,5 0,0
15.07.2018 18:00:00 27,6 18,3 29 16 48 26 W 1013,0 0,0
15.07.2018 17:00:00 28,7 16,6 28 15 42 23 W 1013,3 -
15.07.2018 16:00:00 28,7 19,6 26 14 42 23 W 1013,8 0,0
15.07.2018 15:00:00 29,3 15,4 28 15 41 22 WSW 1013,9 0,0
15.07.2018 14:00:00 30,1 16,5 24 13 35 19 W 1014,1 -
15.07.2018 13:00:00 29,8 17,6 18 10 28 15 WSW 1014,3 0,0
15.07.2018 12:00:00 29,6 16,4 8 4 15 8 W 1014,0 0,0
15.07.2018 11:00:00 27,7 15,7 9 5 21 11 W 1014,2 -
15.07.2018 10:00:00 25,1 19,2 15 8 22 12 W 1014,3 0,0
15.07.2018 09:00:00 24,3 19,1 15 8 24 13 W 1014,6 0,0
15.07.2018 08:00:00 23,3 19,9 18 10 24 13 W 1014,9 -
15.07.2018 07:00:00 22,3 19,7 13 7 21 11 W 1014,4 0,0
15.07.2018 06:00:00 22,1 20,0 16 9 22 12 WNW 1014,3 0,0
15.07.2018 05:00:00 22,7 20,2 15 8 18 10 W 1014,0 -
15.07.2018 04:00:00 21,9 18,7 13 7 15 8 W 1014,2 0,0
15.07.2018 03:00:00 23,0 21,3 8 4 11 6 W 1014,4 0,0
15.07.2018 02:00:00 23,4 20,7 5 3 8 4 WNW 1014,8 -
15.07.2018 01:00:00 23,7 21,0 4 2 5 3 ESE 1015,0 0,0
15.07.2018 00:00:00 23,9 20,6 4 2 5 3 E 1015,0 0,0
14.07.2018 23:00:00 23,9 20,4 2 1 8 4 SE 1014,7 -
14.07.2018 22:00:00 23,7 20,0 4 2 5 3 ESE 1014,5 0,0
14.07.2018 21:00:00 24,6 20,1 8 4 9 5 ESE 1013,9 0,0
14.07.2018 20:00:00 26,7 19,1 8 4 18 10 ESE 1013,8 -
14.07.2018 19:00:00 27,8 19,3 11 6 24 13 ESE 1014,0 0,0
14.07.2018 18:00:00 28,2 18,0 18 10 28 15 E 1014,2 0,0
14.07.2018 17:00:00 28,7 20,2 13 7 26 14 E 1014,8 -
14.07.2018 16:00:00 28,5 20,8 16 9 28 15 E 1015,1 0,0
14.07.2018 15:00:00 28,2 20,7 18 10 29 16 E 1015,5 0,0
14.07.2018 14:00:00 28,3 20,6 18 10 48 26 E 1015,9 -
14.07.2018 13:00:00 27,5 21,3 31 17 46 25 E 1015,2 0,0
14.07.2018 12:00:00 27,3 21,8 31 17 52 28 E 1015,4 0,0
14.07.2018 11:00:00 25,4 20,6 42 23 57 31 E 1015,2 -
14.07.2018 10:00:00 25,6 20,8 31 17 44 24 E 1015,7 0,0
14.07.2018 09:00:00 24,2 21,3 24 13 35 19 E 1016,0 0,0
14.07.2018 08:00:00 23,8 21,3 22 12 34 18 E 1015,9 -
14.07.2018 07:00:00 22,7 20,6 16 9 22 12 E 1016,1 0,0
14.07.2018 06:00:00 22,5 20,0 15 8 21 11 E 1016,4 0,0
14.07.2018 05:00:00 22,7 20,6 16 9 22 12 ENE 1016,6 -
14.07.2018 04:00:00 22,9 20,8 13 7 28 15 ENE 1017,0 0,0
14.07.2018 03:00:00 22,7 20,4 11 6 18 10 ENE 1016,9 0,0
14.07.2018 02:00:00 22,6 21,1 15 8 18 10 E 1016,5 -
14.07.2018 01:00:00 22,8 21,4 4 2 11 6 W 1017,5 0,0
14.07.2018 00:00:00 23,0 21,3 5 3 8 4 NNW 1017,5 0,0
13.07.2018 23:00:00 23,1 20,8 4 2 15 8 W 1017,4 -
13.07.2018 22:00:00 23,1 18,4 0 0 13 7 N 1016,9 0,0
13.07.2018 21:00:00 23,9 19,8 4 2 11 6 E 1015,8 0,0
13.07.2018 20:00:00 25,3 20,1 4 2 9 5 S 1016,0 -
13.07.2018 19:00:00 26,5 17,8 4 2 16 9 NW 1015,8 0,0
13.07.2018 18:00:00 26,4 18,5 13 7 24 13 WSW 1016,6 0,0
13.07.2018 17:00:00 27,3 18,6 11 6 26 14 WSW 1016,7 -
13.07.2018 16:00:00 26,5 21,3 11 6 26 14 S 1017,2 0,0
13.07.2018 15:00:00 27,3 21,3 15 8 22 12 SSE 1017,2 0,0
13.07.2018 14:00:00 26,3 21,1 13 7 22 12 SSE 1017,1 -
13.07.2018 13:00:00 27,5 21,1 16 9 24 13 ESE 1017,1 0,0
13.07.2018 12:00:00 27,1 20,7 13 7 26 14 ESE 1017,1 0,0
13.07.2018 11:00:00 26,3 20,2 15 8 24 13 ESE 1017,2 -
13.07.2018 10:00:00 25,8 18,5 9 5 21 11 ENE 1017,2 0,0
13.07.2018 09:00:00 25,3 12,2 11 6 18 10 NE 1017,0 0,0
13.07.2018 08:00:00 24,1 14,5 9 5 13 7 ESE 1016,6 -
13.07.2018 07:00:00 22,2 14,6 4 2 8 4 ESE 1016,4 0,0
13.07.2018 06:00:00 21,1 16,1 2 1 13 7 NE 1016,0 0,0
13.07.2018 05:00:00 21,4 16,4 11 6 21 11 W 1015,8 -
13.07.2018 04:00:00 21,6 17,0 15 8 24 13 W 1015,9 0,0
13.07.2018 03:00:00 21,6 16,8 18 10 29 16 W 1015,8 0,0
13.07.2018 02:00:00 21,8 17,8 22 12 34 18 W 1015,6 -
13.07.2018 01:00:00 22,0 16,5 22 12 31 17 W 1015,6 0,0
13.07.2018 00:00:00 22,3 16,3 18 10 31 17 W 1015,4 0,0
12.07.2018 23:00:00 23,0 14,3 22 12 34 18 W 1015,3 -
12.07.2018 22:00:00 22,9 15,7 22 12 39 21 W 1014,8 0,0
12.07.2018 21:00:00 23,4 17,4 24 13 41 22 W 1014,1 0,0
12.07.2018 20:00:00 24,9 17,6 22 12 37 20 W 1014,2 -
12.07.2018 19:00:00 27,2 13,2 22 12 42 23 W 1013,8 0,0
12.07.2018 18:00:00 26,8 14,9 29 16 44 24 WSW 1013,6 0,0
12.07.2018 17:00:00 28,1 15,4 26 14 42 23 WSW 1013,8 -
12.07.2018 16:00:00 27,4 16,1 22 12 35 19 W 1014,3 0,0
12.07.2018 15:00:00 28,8 15,0 21 11 29 16 W 1014,2 0,0
12.07.2018 14:00:00 26,5 16,4 18 10 28 15 W 1014,6 -
12.07.2018 13:00:00 27,3 14,3 9 5 22 12 SW 1014,7 0,0
12.07.2018 12:00:00 25,6 17,3 11 6 18 10 SSE 1014,8 0,0
12.07.2018 11:00:00 25,2 17,9 8 4 13 7 SSE 1014,5 -
12.07.2018 10:00:00 26,1 16,6 5 3 15 8 ESE 1014,1 0,0
12.07.2018 09:00:00 24,2 14,3 2 1 5 3 N 1013,9 0,0
12.07.2018 08:00:00 21,6 15,7 2 1 8 4 W 1013,7 -
12.07.2018 07:00:00 21,5 16,2 5 3 11 6 W 1013,4 0,0
12.07.2018 06:00:00 21,5 14,6 8 4 11 6 WNW 1013,0 0,0
12.07.2018 05:00:00 22,2 11,9 4 2 15 8 WSW 1012,6 -
12.07.2018 04:00:00 21,9 11,9 9 5 18 10 NNW 1012,5 0,0
12.07.2018 03:00:00 21,7 14,8 15 8 21 11 W 1012,6 0,0
12.07.2018 02:00:00 21,8 15,9 16 9 37 20 W 1012,6 -
12.07.2018 01:00:00 22,4 17,1 28 15 44 24 W 1012,8 0,0
12.07.2018 00:00:00 22,4 18,6 29 16 55 30 W 1012,6 0,0
11.07.2018 23:00:00 23,1 18,8 41 22 59 32 W 1011,8 -
11.07.2018 22:00:00 23,0 17,9 39 21 57 31 W 1011,1 0,0
11.07.2018 21:00:00 23,8 16,8 31 17 54 29 W 1010,7 0,0
11.07.2018 20:00:00 24,9 15,5 35 19 54 29 W 1010,1 -
11.07.2018 19:00:00 25,7 13,9 34 18 57 31 W 1009,9 0,0
11.07.2018 18:00:00 25,8 13,6 39 21 57 31 W 1009,9 0,0
11.07.2018 17:00:00 26,6 13,3 34 18 59 32 W 1009,8 -
11.07.2018 16:00:00 26,5 13,3 37 20 59 32 W 1009,9 0,0
11.07.2018 15:00:00 27,7 14,7 28 15 44 24 W 1009,9 0,0

tt = temperature
td = dewpoint
ff = wind speed
fx = gusts
dd = wind direction
ppp = reduced air pressure
rr = precipitation

Next stations